sensor_id;sensor_type;location;lat;lon;timestamp;P1;durP1;ratioP1;P2;durP2;ratioP2
13866;SDS011;7003;46.982;15.248;2022-08-01T00:00:09;5.35;;;3.67;;
13866;SDS011;7003;46.982;15.248;2022-08-01T00:02:37;2.55;;;2.40;;
13866;SDS011;7003;46.982;15.248;2022-08-01T00:05:05;3.67;;;3.38;;
13866;SDS011;7003;46.982;15.248;2022-08-01T00:07:36;3.83;;;3.53;;
13866;SDS011;7003;46.982;15.248;2022-08-01T00:10:07;4.35;;;3.53;;
13866;SDS011;7003;46.982;15.248;2022-08-01T00:12:35;3.85;;;3.50;;
13866;SDS011;7003;46.982;15.248;2022-08-01T00:15:03;3.17;;;2.80;;
13866;SDS011;7003;46.982;15.248;2022-08-01T00:17:32;3.78;;;3.47;;
13866;SDS011;7003;46.982;15.248;2022-08-01T00:19:59;2.85;;;2.65;;
13866;SDS011;7003;46.982;15.248;2022-08-01T00:22:30;3.88;;;3.35;;
13866;SDS011;7003;46.982;15.248;2022-08-01T00:24:57;3.42;;;3.13;;
13866;SDS011;7003;46.982;15.248;2022-08-01T00:27:27;4.05;;;3.65;;
13866;SDS011;7003;46.982;15.248;2022-08-01T00:29:55;3.72;;;3.33;;
13866;SDS011;7003;46.982;15.248;2022-08-01T00:32:22;4.60;;;4.10;;
13866;SDS011;7003;46.982;15.248;2022-08-01T00:34:50;5.97;;;3.58;;
13866;SDS011;7003;46.982;15.248;2022-08-01T00:37:20;3.08;;;2.85;;
13866;SDS011;7003;46.982;15.248;2022-08-01T00:39:49;3.20;;;3.00;;
13866;SDS011;7003;46.982;15.248;2022-08-01T00:42:18;3.75;;;3.45;;
13866;SDS011;7003;46.982;15.248;2022-08-01T00:44:48;3.20;;;2.95;;
13866;SDS011;7003;46.982;15.248;2022-08-01T00:47:18;4.15;;;3.55;;
13866;SDS011;7003;46.982;15.248;2022-08-01T00:49:45;3.53;;;3.22;;
13866;SDS011;7003;46.982;15.248;2022-08-01T00:52:14;3.55;;;3.35;;
13866;SDS011;7003;46.982;15.248;2022-08-01T00:54:41;3.05;;;2.85;;
13866;SDS011;7003;46.982;15.248;2022-08-01T00:57:12;3.33;;;3.08;;
13866;SDS011;7003;46.982;15.248;2022-08-01T00:59:42;5.00;;;2.88;;
13866;SDS011;7003;46.982;15.248;2022-08-01T01:02:12;4.15;;;3.30;;
13866;SDS011;7003;46.982;15.248;2022-08-01T01:04:39;3.95;;;3.55;;
13866;SDS011;7003;46.982;15.248;2022-08-01T01:07:07;3.05;;;2.88;;
13866;SDS011;7003;46.982;15.248;2022-08-01T01:09:46;3.25;;;3.05;;
13866;SDS011;7003;46.982;15.248;2022-08-01T01:12:22;3.60;;;3.03;;
13866;SDS011;7003;46.982;15.248;2022-08-01T01:14:59;5.90;;;3.50;;
13866;SDS011;7003;46.982;15.248;2022-08-01T01:17:33;4.10;;;3.70;;
13866;SDS011;7003;46.982;15.248;2022-08-01T01:20:07;3.75;;;3.45;;
13866;SDS011;7003;46.982;15.248;2022-08-01T01:22:47;2.95;;;2.75;;
13866;SDS011;7003;46.982;15.248;2022-08-01T01:25:38;3.13;;;2.83;;
13866;SDS011;7003;46.982;15.248;2022-08-01T01:28:14;4.43;;;4.07;;
13866;SDS011;7003;46.982;15.248;2022-08-01T01:30:49;3.38;;;3.15;;
13866;SDS011;7003;46.982;15.248;2022-08-01T01:33:18;3.00;;;2.80;;
13866;SDS011;7003;46.982;15.248;2022-08-01T01:35:48;2.50;;;2.30;;
13866;SDS011;7003;46.982;15.248;2022-08-01T01:38:21;7.63;;;3.22;;
13866;SDS011;7003;46.982;15.248;2022-08-01T01:40:51;3.65;;;3.38;;
13866;SDS011;7003;46.982;15.248;2022-08-01T01:43:23;4.47;;;4.07;;
13866;SDS011;7003;46.982;15.248;2022-08-01T01:45:53;6.80;;;3.03;;
13866;SDS011;7003;46.982;15.248;2022-08-01T01:48:25;2.60;;;2.40;;
13866;SDS011;7003;46.982;15.248;2022-08-01T01:50:57;5.05;;;3.28;;
13866;SDS011;7003;46.982;15.248;2022-08-01T01:53:28;3.83;;;3.35;;
13866;SDS011;7003;46.982;15.248;2022-08-01T01:56:00;3.03;;;2.72;;
13866;SDS011;7003;46.982;15.248;2022-08-01T01:58:29;3.95;;;3.65;;
13866;SDS011;7003;46.982;15.248;2022-08-01T02:01:00;4.75;;;3.95;;
13866;SDS011;7003;46.982;15.248;2022-08-01T02:03:31;4.45;;;3.85;;
13866;SDS011;7003;46.982;15.248;2022-08-01T02:06:04;3.35;;;3.08;;
13866;SDS011;7003;46.982;15.248;2022-08-01T02:08:34;3.67;;;3.38;;
13866;SDS011;7003;46.982;15.248;2022-08-01T02:11:03;3.05;;;2.85;;
13866;SDS011;7003;46.982;15.248;2022-08-01T02:13:50;4.03;;;3.72;;
13866;SDS011;7003;46.982;15.248;2022-08-01T02:16:23;4.25;;;3.38;;
13866;SDS011;7003;46.982;15.248;2022-08-01T02:18:55;3.30;;;3.08;;
13866;SDS011;7003;46.982;15.248;2022-08-01T02:21:25;6.93;;;3.65;;
13866;SDS011;7003;46.982;15.248;2022-08-01T02:23:58;4.32;;;3.72;;
13866;SDS011;7003;46.982;15.248;2022-08-01T02:26:29;3.17;;;2.85;;
13866;SDS011;7003;46.982;15.248;2022-08-01T02:29:01;3.05;;;2.85;;
13866;SDS011;7003;46.982;15.248;2022-08-01T02:31:35;2.67;;;2.45;;
13866;SDS011;7003;46.982;15.248;2022-08-01T02:34:06;3.72;;;3.42;;
13866;SDS011;7003;46.982;15.248;2022-08-01T02:36:36;3.47;;;3.17;;
13866;SDS011;7003;46.982;15.248;2022-08-01T02:39:06;2.92;;;2.72;;
13866;SDS011;7003;46.982;15.248;2022-08-01T02:41:38;3.72;;;3.42;;
13866;SDS011;7003;46.982;15.248;2022-08-01T02:44:09;3.53;;;3.22;;
13866;SDS011;7003;46.982;15.248;2022-08-01T02:46:46;3.90;;;3.47;;
13866;SDS011;7003;46.982;15.248;2022-08-01T02:49:18;5.03;;;3.72;;
13866;SDS011;7003;46.982;15.248;2022-08-01T02:51:48;3.78;;;3.00;;
13866;SDS011;7003;46.982;15.248;2022-08-01T02:54:20;4.63;;;3.95;;
13866;SDS011;7003;46.982;15.248;2022-08-01T02:56:50;3.90;;;3.60;;
13866;SDS011;7003;46.982;15.248;2022-08-01T02:59:21;6.57;;;3.60;;
13866;SDS011;7003;46.982;15.248;2022-08-01T03:01:55;5.80;;;3.92;;
13866;SDS011;7003;46.982;15.248;2022-08-01T03:04:25;9.23;;;4.22;;
13866;SDS011;7003;46.982;15.248;2022-08-01T03:06:55;3.75;;;3.50;;
13866;SDS011;7003;46.982;15.248;2022-08-01T03:09:26;3.53;;;3.33;;
13866;SDS011;7003;46.982;15.248;2022-08-01T03:11:57;15.60;;;3.97;;
13866;SDS011;7003;46.982;15.248;2022-08-01T03:14:30;3.00;;;2.80;;
13866;SDS011;7003;46.982;15.248;2022-08-01T03:17:04;3.28;;;2.97;;
13866;SDS011;7003;46.982;15.248;2022-08-01T03:19:35;7.68;;;4.05;;
13866;SDS011;7003;46.982;15.248;2022-08-01T03:22:05;3.40;;;3.03;;
13866;SDS011;7003;46.982;15.248;2022-08-01T03:24:35;3.42;;;3.13;;
13866;SDS011;7003;46.982;15.248;2022-08-01T03:27:04;4.07;;;3.40;;
13866;SDS011;7003;46.982;15.248;2022-08-01T03:29:37;4.07;;;3.67;;
13866;SDS011;7003;46.982;15.248;2022-08-01T03:32:09;3.10;;;2.78;;
13866;SDS011;7003;46.982;15.248;2022-08-01T03:34:39;3.75;;;3.50;;
13866;SDS011;7003;46.982;15.248;2022-08-01T03:37:11;3.25;;;3.05;;
13866;SDS011;7003;46.982;15.248;2022-08-01T03:39:43;3.97;;;3.45;;
13866;SDS011;7003;46.982;15.248;2022-08-01T03:42:18;3.83;;;3.40;;
13866;SDS011;7003;46.982;15.248;2022-08-01T03:44:51;3.83;;;3.42;;
13866;SDS011;7003;46.982;15.248;2022-08-01T03:47:27;4.25;;;2.63;;
13866;SDS011;7003;46.982;15.248;2022-08-01T03:50:02;3.67;;;3.38;;
13866;SDS011;7003;46.982;15.248;2022-08-01T03:52:31;12.82;;;3.05;;
13866;SDS011;7003;46.982;15.248;2022-08-01T03:55:04;3.70;;;3.40;;
13866;SDS011;7003;46.982;15.248;2022-08-01T03:57:37;4.50;;;4.10;;
13866;SDS011;7003;46.982;15.248;2022-08-01T04:00:08;4.40;;;4.00;;
13866;SDS011;7003;46.982;15.248;2022-08-01T04:02:40;3.10;;;2.90;;
13866;SDS011;7003;46.982;15.248;2022-08-01T04:05:14;5.18;;;3.30;;
13866;SDS011;7003;46.982;15.248;2022-08-01T04:07:45;4.32;;;3.92;;
13866;SDS011;7003;46.982;15.248;2022-08-01T04:10:15;3.40;;;3.10;;
13866;SDS011;7003;46.982;15.248;2022-08-01T04:12:47;6.88;;;3.40;;
13866;SDS011;7003;46.982;15.248;2022-08-01T04:15:15;11.57;;;4.60;;
13866;SDS011;7003;46.982;15.248;2022-08-01T04:17:47;8.27;;;4.28;;
13866;SDS011;7003;46.982;15.248;2022-08-01T04:20:15;15.82;;;4.55;;
13866;SDS011;7003;46.982;15.248;2022-08-01T04:22:45;18.98;;;6.03;;
13866;SDS011;7003;46.982;15.248;2022-08-01T04:25:16;4.38;;;3.88;;
13866;SDS011;7003;46.982;15.248;2022-08-01T04:27:49;4.15;;;3.78;;
13866;SDS011;7003;46.982;15.248;2022-08-01T04:30:22;5.45;;;4.05;;
13866;SDS011;7003;46.982;15.248;2022-08-01T04:32:57;3.78;;;3.47;;
13866;SDS011;7003;46.982;15.248;2022-08-01T04:35:29;3.28;;;3.08;;
13866;SDS011;7003;46.982;15.248;2022-08-01T04:37:59;5.53;;;4.97;;
13866;SDS011;7003;46.982;15.248;2022-08-01T04:40:29;12.32;;;3.97;;
13866;SDS011;7003;46.982;15.248;2022-08-01T04:42:57;3.92;;;3.53;;
13866;SDS011;7003;46.982;15.248;2022-08-01T04:45:25;3.67;;;3.38;;
13866;SDS011;7003;46.982;15.248;2022-08-01T04:47:54;3.58;;;3.30;;
13866;SDS011;7003;46.982;15.248;2022-08-01T04:50:30;4.10;;;3.75;;
13866;SDS011;7003;46.982;15.248;2022-08-01T04:52:58;3.58;;;3.28;;
13866;SDS011;7003;46.982;15.248;2022-08-01T04:55:28;3.70;;;3.40;;
13866;SDS011;7003;46.982;15.248;2022-08-01T04:57:58;4.07;;;3.65;;
13866;SDS011;7003;46.982;15.248;2022-08-01T05:00:26;3.58;;;3.28;;
13866;SDS011;7003;46.982;15.248;2022-08-01T05:02:56;6.07;;;3.20;;
13866;SDS011;7003;46.982;15.248;2022-08-01T05:05:26;3.65;;;3.35;;
13866;SDS011;7003;46.982;15.248;2022-08-01T05:07:56;3.42;;;3.13;;
13866;SDS011;7003;46.982;15.248;2022-08-01T05:10:24;3.85;;;3.55;;
13866;SDS011;7003;46.982;15.248;2022-08-01T05:12:52;4.32;;;3.65;;
13866;SDS011;7003;46.982;15.248;2022-08-01T05:15:21;3.15;;;2.90;;
13866;SDS011;7003;46.982;15.248;2022-08-01T05:17:48;3.42;;;3.13;;
13866;SDS011;7003;46.982;15.248;2022-08-01T05:20:20;4.60;;;3.28;;
13866;SDS011;7003;46.982;15.248;2022-08-01T05:22:48;3.08;;;2.88;;
13866;SDS011;7003;46.982;15.248;2022-08-01T05:25:15;4.10;;;3.22;;
13866;SDS011;7003;46.982;15.248;2022-08-01T05:27:46;3.97;;;3.58;;
13866;SDS011;7003;46.982;15.248;2022-08-01T05:30:18;4.57;;;3.95;;
13866;SDS011;7003;46.982;15.248;2022-08-01T05:32:48;3.63;;;3.33;;
13866;SDS011;7003;46.982;15.248;2022-08-01T05:35:22;3.60;;;3.30;;
13866;SDS011;7003;46.982;15.248;2022-08-01T05:37:54;3.47;;;3.17;;
13866;SDS011;7003;46.982;15.248;2022-08-01T05:40:24;3.67;;;3.38;;
13866;SDS011;7003;46.982;15.248;2022-08-01T05:42:51;3.95;;;3.60;;
13866;SDS011;7003;46.982;15.248;2022-08-01T05:45:20;3.33;;;3.10;;
13866;SDS011;7003;46.982;15.248;2022-08-01T05:47:51;4.13;;;3.78;;
13866;SDS011;7003;46.982;15.248;2022-08-01T05:50:23;2.78;;;2.58;;
13866;SDS011;7003;46.982;15.248;2022-08-01T05:52:51;4.28;;;3.78;;
13866;SDS011;7003;46.982;15.248;2022-08-01T05:55:21;6.25;;;3.85;;
13866;SDS011;7003;46.982;15.248;2022-08-01T05:57:48;3.50;;;3.20;;
13866;SDS011;7003;46.982;15.248;2022-08-01T06:00:16;4.18;;;3.80;;
13866;SDS011;7003;46.982;15.248;2022-08-01T06:02:46;3.05;;;2.85;;
13866;SDS011;7003;46.982;15.248;2022-08-01T06:05:13;3.50;;;2.85;;
13866;SDS011;7003;46.982;15.248;2022-08-01T06:07:42;3.72;;;3.42;;
13866;SDS011;7003;46.982;15.248;2022-08-01T06:10:11;4.18;;;3.03;;
13866;SDS011;7003;46.982;15.248;2022-08-01T06:12:39;5.28;;;3.95;;
13866;SDS011;7003;46.982;15.248;2022-08-01T06:15:09;4.05;;;2.90;;
13866;SDS011;7003;46.982;15.248;2022-08-01T06:17:37;7.15;;;4.55;;
13866;SDS011;7003;46.982;15.248;2022-08-01T06:20:09;4.35;;;3.95;;
13866;SDS011;7003;46.982;15.248;2022-08-01T06:22:39;5.30;;;3.72;;
13866;SDS011;7003;46.982;15.248;2022-08-01T06:25:10;5.55;;;4.68;;
13866;SDS011;7003;46.982;15.248;2022-08-01T06:27:39;3.67;;;3.38;;
13866;SDS011;7003;46.982;15.248;2022-08-01T06:30:06;4.03;;;3.60;;
13866;SDS011;7003;46.982;15.248;2022-08-01T06:32:34;3.20;;;3.00;;
13866;SDS011;7003;46.982;15.248;2022-08-01T06:35:02;4.95;;;4.22;;
13866;SDS011;7003;46.982;15.248;2022-08-01T06:37:31;4.28;;;3.97;;
13866;SDS011;7003;46.982;15.248;2022-08-01T06:40:00;4.07;;;3.78;;
13866;SDS011;7003;46.982;15.248;2022-08-01T06:42:29;4.05;;;3.65;;
13866;SDS011;7003;46.982;15.248;2022-08-01T06:45:01;4.28;;;3.92;;
13866;SDS011;7003;46.982;15.248;2022-08-01T06:47:28;4.72;;;4.32;;
13866;SDS011;7003;46.982;15.248;2022-08-01T06:49:56;4.50;;;4.18;;
13866;SDS011;7003;46.982;15.248;2022-08-01T06:52:26;6.03;;;3.80;;
13866;SDS011;7003;46.982;15.248;2022-08-01T06:54:54;3.55;;;3.25;;
13866;SDS011;7003;46.982;15.248;2022-08-01T06:57:24;4.07;;;3.67;;
13866;SDS011;7003;46.982;15.248;2022-08-01T06:59:53;3.97;;;3.67;;
13866;SDS011;7003;46.982;15.248;2022-08-01T07:02:23;3.50;;;3.28;;
13866;SDS011;7003;46.982;15.248;2022-08-01T07:04:51;4.55;;;4.10;;
13866;SDS011;7003;46.982;15.248;2022-08-01T07:07:21;4.40;;;3.63;;
13866;SDS011;7003;46.982;15.248;2022-08-01T07:09:51;3.75;;;3.45;;
13866;SDS011;7003;46.982;15.248;2022-08-01T07:12:18;3.97;;;3.55;;
13866;SDS011;7003;46.982;15.248;2022-08-01T07:14:48;4.63;;;3.65;;
13866;SDS011;7003;46.982;15.248;2022-08-01T07:17:17;3.83;;;3.53;;
13866;SDS011;7003;46.982;15.248;2022-08-01T07:19:48;2.53;;;2.33;;
13866;SDS011;7003;46.982;15.248;2022-08-01T07:22:16;3.97;;;3.33;;
13866;SDS011;7003;46.982;15.248;2022-08-01T07:24:46;4.03;;;3.63;;
13866;SDS011;7003;46.982;15.248;2022-08-01T07:27:15;2.50;;;2.30;;
13866;SDS011;7003;46.982;15.248;2022-08-01T07:29:43;4.53;;;3.65;;
13866;SDS011;7003;46.982;15.248;2022-08-01T07:32:10;3.85;;;3.55;;
13866;SDS011;7003;46.982;15.248;2022-08-01T07:34:42;4.72;;;2.75;;
13866;SDS011;7003;46.982;15.248;2022-08-01T07:37:10;3.15;;;2.60;;
13866;SDS011;7003;46.982;15.248;2022-08-01T07:39:37;3.33;;;3.03;;
13866;SDS011;7003;46.982;15.248;2022-08-01T07:42:07;2.83;;;2.63;;
13866;SDS011;7003;46.982;15.248;2022-08-01T07:44:37;4.85;;;2.55;;
13866;SDS011;7003;46.982;15.248;2022-08-01T07:47:05;3.85;;;3.50;;
13866;SDS011;7003;46.982;15.248;2022-08-01T07:49:35;2.85;;;2.65;;
13866;SDS011;7003;46.982;15.248;2022-08-01T07:52:06;4.63;;;3.30;;
13866;SDS011;7003;46.982;15.248;2022-08-01T07:54:34;3.55;;;2.75;;
13866;SDS011;7003;46.982;15.248;2022-08-01T07:57:04;3.80;;;3.42;;
13866;SDS011;7003;46.982;15.248;2022-08-01T07:59:33;5.05;;;3.38;;
13866;SDS011;7003;46.982;15.248;2022-08-01T08:02:01;4.55;;;3.22;;
13866;SDS011;7003;46.982;15.248;2022-08-01T08:04:30;3.78;;;3.42;;
13866;SDS011;7003;46.982;15.248;2022-08-01T08:06:57;2.60;;;2.40;;
13866;SDS011;7003;46.982;15.248;2022-08-01T08:09:28;2.78;;;2.58;;
13866;SDS011;7003;46.982;15.248;2022-08-01T08:11:59;3.15;;;2.95;;
13866;SDS011;7003;46.982;15.248;2022-08-01T08:14:26;4.05;;;2.78;;
13866;SDS011;7003;46.982;15.248;2022-08-01T08:16:54;3.35;;;3.05;;
13866;SDS011;7003;46.982;15.248;2022-08-01T08:19:24;2.10;;;2.00;;
13866;SDS011;7003;46.982;15.248;2022-08-01T08:21:52;3.05;;;2.53;;
13866;SDS011;7003;46.982;15.248;2022-08-01T08:24:20;2.50;;;2.30;;
13866;SDS011;7003;46.982;15.248;2022-08-01T08:26:56;3.67;;;3.38;;
13866;SDS011;7003;46.982;15.248;2022-08-01T08:29:28;3.20;;;2.85;;
13866;SDS011;7003;46.982;15.248;2022-08-01T08:31:58;3.40;;;2.72;;
13866;SDS011;7003;46.982;15.248;2022-08-01T08:34:26;3.88;;;3.58;;
13866;SDS011;7003;46.982;15.248;2022-08-01T08:36:56;3.90;;;2.22;;
13866;SDS011;7003;46.982;15.248;2022-08-01T08:39:25;2.85;;;2.65;;
13866;SDS011;7003;46.982;15.248;2022-08-01T08:41:58;4.68;;;3.20;;
13866;SDS011;7003;46.982;15.248;2022-08-01T08:44:27;8.73;;;2.95;;
13866;SDS011;7003;46.982;15.248;2022-08-01T08:46:57;2.53;;;2.40;;
13866;SDS011;7003;46.982;15.248;2022-08-01T08:49:33;2.53;;;2.33;;
13866;SDS011;7003;46.982;15.248;2022-08-01T08:52:02;2.70;;;2.50;;
13866;SDS011;7003;46.982;15.248;2022-08-01T08:54:31;3.42;;;3.03;;
13866;SDS011;7003;46.982;15.248;2022-08-01T08:57:01;2.95;;;2.75;;
13866;SDS011;7003;46.982;15.248;2022-08-01T08:59:29;2.80;;;2.60;;
13866;SDS011;7003;46.982;15.248;2022-08-01T09:01:57;4.75;;;3.25;;
13866;SDS011;7003;46.982;15.248;2022-08-01T09:04:25;2.78;;;2.58;;
13866;SDS011;7003;46.982;15.248;2022-08-01T09:06:55;3.05;;;2.85;;
13866;SDS011;7003;46.982;15.248;2022-08-01T09:09:25;2.90;;;2.70;;
13866;SDS011;7003;46.982;15.248;2022-08-01T09:11:56;5.70;;;3.40;;
13866;SDS011;7003;46.982;15.248;2022-08-01T09:14:25;2.67;;;2.47;;
13866;SDS011;7003;46.982;15.248;2022-08-01T09:16:59;2.60;;;2.40;;
13866;SDS011;7003;46.982;15.248;2022-08-01T09:19:34;3.33;;;2.90;;
13866;SDS011;7003;46.982;15.248;2022-08-01T09:22:04;3.20;;;2.47;;
13866;SDS011;7003;46.982;15.248;2022-08-01T09:24:35;2.22;;;2.03;;
13866;SDS011;7003;46.982;15.248;2022-08-01T09:27:15;3.75;;;2.35;;
13866;SDS011;7003;46.982;15.248;2022-08-01T09:29:48;6.40;;;2.55;;
13866;SDS011;7003;46.982;15.248;2022-08-01T09:32:20;2.55;;;2.17;;
13866;SDS011;7003;46.982;15.248;2022-08-01T09:34:48;2.05;;;1.85;;
13866;SDS011;7003;46.982;15.248;2022-08-01T09:37:17;2.35;;;2.15;;
13866;SDS011;7003;46.982;15.248;2022-08-01T09:40:05;2.70;;;2.50;;
13866;SDS011;7003;46.982;15.248;2022-08-01T09:42:35;5.65;;;1.95;;
13866;SDS011;7003;46.982;15.248;2022-08-01T09:45:06;2.35;;;1.83;;
13866;SDS011;7003;46.982;15.248;2022-08-01T09:47:37;2.70;;;2.17;;
13866;SDS011;7003;46.982;15.248;2022-08-01T09:50:05;5.50;;;2.30;;
13866;SDS011;7003;46.982;15.248;2022-08-01T09:52:34;2.67;;;2.47;;
13866;SDS011;7003;46.982;15.248;2022-08-01T09:55:03;2.58;;;2.38;;
13866;SDS011;7003;46.982;15.248;2022-08-01T09:57:33;3.03;;;2.58;;
13866;SDS011;7003;46.982;15.248;2022-08-01T10:00:00;2.60;;;2.40;;
13866;SDS011;7003;46.982;15.248;2022-08-01T10:02:32;3.58;;;2.28;;
13866;SDS011;7003;46.982;15.248;2022-08-01T10:05:03;2.72;;;2.22;;
13866;SDS011;7003;46.982;15.248;2022-08-01T10:07:34;2.50;;;2.30;;
13866;SDS011;7003;46.982;15.248;2022-08-01T10:10:09;4.22;;;2.92;;
13866;SDS011;7003;46.982;15.248;2022-08-01T10:12:38;2.35;;;2.25;;
13866;SDS011;7003;46.982;15.248;2022-08-01T10:15:07;2.53;;;2.33;;
13866;SDS011;7003;46.982;15.248;2022-08-01T10:17:37;2.53;;;2.33;;
13866;SDS011;7003;46.982;15.248;2022-08-01T10:20:10;2.95;;;2.63;;
13866;SDS011;7003;46.982;15.248;2022-08-01T10:22:39;2.00;;;1.90;;
13866;SDS011;7003;46.982;15.248;2022-08-01T10:25:09;2.88;;;2.58;;
13866;SDS011;7003;46.982;15.248;2022-08-01T10:27:38;2.60;;;2.40;;
13866;SDS011;7003;46.982;15.248;2022-08-01T10:30:11;2.25;;;2.05;;
13866;SDS011;7003;46.982;15.248;2022-08-01T10:32:41;3.35;;;2.28;;
13866;SDS011;7003;46.982;15.248;2022-08-01T10:35:12;2.90;;;2.70;;
13866;SDS011;7003;46.982;15.248;2022-08-01T10:37:45;2.33;;;2.17;;
13866;SDS011;7003;46.982;15.248;2022-08-01T10:40:16;2.30;;;2.15;;
13866;SDS011;7003;46.982;15.248;2022-08-01T10:42:45;2.42;;;1.70;;
13866;SDS011;7003;46.982;15.248;2022-08-01T10:45:15;3.13;;;2.53;;
13866;SDS011;7003;46.982;15.248;2022-08-01T10:47:45;1.88;;;1.77;;
13866;SDS011;7003;46.982;15.248;2022-08-01T10:50:21;2.33;;;2.13;;
13866;SDS011;7003;46.982;15.248;2022-08-01T10:53:04;2.85;;;2.65;;
13866;SDS011;7003;46.982;15.248;2022-08-01T10:55:58;2.67;;;2.20;;
13866;SDS011;7003;46.982;15.248;2022-08-01T10:58:31;2.55;;;2.35;;
13866;SDS011;7003;46.982;15.248;2022-08-01T11:01:14;2.53;;;2.33;;
13866;SDS011;7003;46.982;15.248;2022-08-01T11:06:40;2.58;;;2.38;;
13866;SDS011;7003;46.982;15.248;2022-08-01T11:09:19;2.45;;;2.03;;
13866;SDS011;7003;46.982;15.248;2022-08-01T11:11:57;2.90;;;2.70;;
13866;SDS011;7003;46.982;15.248;2022-08-01T11:14:28;4.55;;;4.00;;
13866;SDS011;7003;46.982;15.248;2022-08-01T11:16:57;3.30;;;3.10;;
13866;SDS011;7003;46.982;15.248;2022-08-01T11:20:04;3.92;;;2.72;;
13866;SDS011;7003;46.982;15.248;2022-08-01T11:28:38;3.72;;;3.45;;
13866;SDS011;7003;46.982;15.248;2022-08-01T11:31:25;3.70;;;3.40;;
13866;SDS011;7003;46.982;15.248;2022-08-01T11:33:56;2.65;;;2.45;;
13866;SDS011;7003;46.982;15.248;2022-08-01T11:36:28;3.40;;;3.10;;
13866;SDS011;7003;46.982;15.248;2022-08-01T11:39:12;3.17;;;2.75;;
13866;SDS011;7003;46.982;15.248;2022-08-01T11:41:42;3.38;;;3.03;;
13866;SDS011;7003;46.982;15.248;2022-08-01T11:44:13;3.47;;;2.50;;
13866;SDS011;7003;46.982;15.248;2022-08-01T11:46:53;3.95;;;3.53;;
13866;SDS011;7003;46.982;15.248;2022-08-01T11:49:24;2.70;;;2.47;;
13866;SDS011;7003;46.982;15.248;2022-08-01T11:52:00;2.72;;;2.63;;
13866;SDS011;7003;46.982;15.248;2022-08-01T11:54:33;3.35;;;3.05;;
13866;SDS011;7003;46.982;15.248;2022-08-01T11:57:05;4.35;;;2.83;;
13866;SDS011;7003;46.982;15.248;2022-08-01T11:59:37;3.17;;;2.97;;
13866;SDS011;7003;46.982;15.248;2022-08-01T12:02:14;3.63;;;3.33;;
13866;SDS011;7003;46.982;15.248;2022-08-01T12:04:52;3.20;;;2.97;;
13866;SDS011;7003;46.982;15.248;2022-08-01T12:07:24;2.83;;;2.63;;
13866;SDS011;7003;46.982;15.248;2022-08-01T12:09:58;3.00;;;2.80;;
13866;SDS011;7003;46.982;15.248;2022-08-01T12:12:28;3.35;;;3.05;;
13866;SDS011;7003;46.982;15.248;2022-08-01T12:14:59;3.25;;;3.00;;
13866;SDS011;7003;46.982;15.248;2022-08-01T12:17:31;3.17;;;2.63;;
13866;SDS011;7003;46.982;15.248;2022-08-01T12:20:05;5.55;;;2.80;;
13866;SDS011;7003;46.982;15.248;2022-08-01T12:22:34;2.38;;;2.28;;
13866;SDS011;7003;46.982;15.248;2022-08-01T12:25:06;2.38;;;2.17;;
13866;SDS011;7003;46.982;15.248;2022-08-01T12:27:37;2.30;;;2.10;;
13866;SDS011;7003;46.982;15.248;2022-08-01T12:30:08;3.28;;;2.38;;
13866;SDS011;7003;46.982;15.248;2022-08-01T12:32:37;2.58;;;2.38;;
13866;SDS011;7003;46.982;15.248;2022-08-01T12:35:09;2.33;;;2.13;;
13866;SDS011;7003;46.982;15.248;2022-08-01T12:37:37;2.05;;;1.90;;
13866;SDS011;7003;46.982;15.248;2022-08-01T12:40:12;1.83;;;1.73;;
13866;SDS011;7003;46.982;15.248;2022-08-01T12:42:44;2.03;;;1.92;;
13866;SDS011;7003;46.982;15.248;2022-08-01T12:45:14;2.17;;;1.98;;
13866;SDS011;7003;46.982;15.248;2022-08-01T12:47:44;2.13;;;1.80;;
13866;SDS011;7003;46.982;15.248;2022-08-01T12:50:15;2.90;;;2.13;;
13866;SDS011;7003;46.982;15.248;2022-08-01T12:52:45;2.47;;;2.38;;
13866;SDS011;7003;46.982;15.248;2022-08-01T12:55:16;3.35;;;3.10;;
13866;SDS011;7003;46.982;15.248;2022-08-01T12:57:47;2.17;;;2.08;;
13866;SDS011;7003;46.982;15.248;2022-08-01T13:00:18;1.90;;;1.80;;
13866;SDS011;7003;46.982;15.248;2022-08-01T13:02:48;1.90;;;1.80;;
13866;SDS011;7003;46.982;15.248;2022-08-01T13:05:24;1.95;;;1.85;;
13866;SDS011;7003;46.982;15.248;2022-08-01T13:07:54;3.15;;;2.45;;
13866;SDS011;7003;46.982;15.248;2022-08-01T13:10:25;1.77;;;1.67;;
13866;SDS011;7003;46.982;15.248;2022-08-01T13:12:54;5.07;;;2.25;;
13866;SDS011;7003;46.982;15.248;2022-08-01T13:15:29;3.45;;;2.50;;
13866;SDS011;7003;46.982;15.248;2022-08-01T13:17:58;4.10;;;2.08;;
13866;SDS011;7003;46.982;15.248;2022-08-01T13:20:32;2.10;;;2.00;;
13866;SDS011;7003;46.982;15.248;2022-08-01T13:23:10;1.60;;;1.50;;
13866;SDS011;7003;46.982;15.248;2022-08-01T13:25:48;3.75;;;1.92;;
13866;SDS011;7003;46.982;15.248;2022-08-01T13:28:20;4.47;;;2.28;;
13866;SDS011;7003;46.982;15.248;2022-08-01T13:30:56;2.60;;;1.90;;
13866;SDS011;7003;46.982;15.248;2022-08-01T13:33:40;2.50;;;2.22;;
13866;SDS011;7003;46.982;15.248;2022-08-01T13:36:13;2.22;;;2.13;;
13866;SDS011;7003;46.982;15.248;2022-08-01T13:38:41;1.90;;;1.80;;
13866;SDS011;7003;46.982;15.248;2022-08-01T13:41:27;2.28;;;2.00;;
13866;SDS011;7003;46.982;15.248;2022-08-01T13:43:55;1.92;;;1.83;;
13866;SDS011;7003;46.982;15.248;2022-08-01T13:46:24;9.02;;;2.10;;
13866;SDS011;7003;46.982;15.248;2022-08-01T13:48:53;2.63;;;2.42;;
13866;SDS011;7003;46.982;15.248;2022-08-01T13:51:22;2.03;;;1.90;;
13866;SDS011;7003;46.982;15.248;2022-08-01T13:53:53;1.90;;;1.80;;
13866;SDS011;7003;46.982;15.248;2022-08-01T13:56:24;2.40;;;1.98;;
13866;SDS011;7003;46.982;15.248;2022-08-01T13:58:55;1.83;;;1.73;;
13866;SDS011;7003;46.982;15.248;2022-08-01T14:01:23;2.35;;;2.15;;
13866;SDS011;7003;46.982;15.248;2022-08-01T14:03:54;2.70;;;1.67;;
13866;SDS011;7003;46.982;15.248;2022-08-01T14:06:23;2.60;;;2.45;;
13866;SDS011;7003;46.982;15.248;2022-08-01T14:08:50;1.17;;;1.13;;
13866;SDS011;7003;46.982;15.248;2022-08-01T14:11:18;4.07;;;2.25;;
13866;SDS011;7003;46.982;15.248;2022-08-01T14:13:46;2.88;;;1.65;;
13866;SDS011;7003;46.982;15.248;2022-08-01T14:16:14;1.77;;;1.67;;
13866;SDS011;7003;46.982;15.248;2022-08-01T14:18:42;2.58;;;1.42;;
13866;SDS011;7003;46.982;15.248;2022-08-01T14:21:12;1.33;;;1.23;;
13866;SDS011;7003;46.982;15.248;2022-08-01T14:23:45;3.13;;;1.60;;
13866;SDS011;7003;46.982;15.248;2022-08-01T14:26:15;3.80;;;2.17;;
13866;SDS011;7003;46.982;15.248;2022-08-01T14:28:43;0.93;;;0.93;;
13866;SDS011;7003;46.982;15.248;2022-08-01T14:31:12;1.83;;;1.58;;
13866;SDS011;7003;46.982;15.248;2022-08-01T14:33:41;1.70;;;1.60;;
13866;SDS011;7003;46.982;15.248;2022-08-01T14:36:08;1.25;;;1.15;;
13866;SDS011;7003;46.982;15.248;2022-08-01T14:38:36;2.38;;;1.40;;
13866;SDS011;7003;46.982;15.248;2022-08-01T14:41:08;2.30;;;1.50;;
13866;SDS011;7003;46.982;15.248;2022-08-01T14:43:39;7.35;;;1.20;;
13866;SDS011;7003;46.982;15.248;2022-08-01T14:46:09;0.90;;;0.90;;
13866;SDS011;7003;46.982;15.248;2022-08-01T14:48:37;1.55;;;1.45;;
13866;SDS011;7003;46.982;15.248;2022-08-01T14:51:05;2.10;;;1.90;;
13866;SDS011;7003;46.982;15.248;2022-08-01T14:53:33;1.70;;;1.60;;
13866;SDS011;7003;46.982;15.248;2022-08-01T14:56:02;2.00;;;1.80;;
13866;SDS011;7003;46.982;15.248;2022-08-01T14:58:34;2.88;;;2.20;;
13866;SDS011;7003;46.982;15.248;2022-08-01T15:01:02;5.82;;;2.15;;
13866;SDS011;7003;46.982;15.248;2022-08-01T15:03:31;2.70;;;1.45;;
13866;SDS011;7003;46.982;15.248;2022-08-01T15:06:01;1.33;;;1.15;;
13866;SDS011;7003;46.982;15.248;2022-08-01T15:08:28;2.63;;;1.52;;
13866;SDS011;7003;46.982;15.248;2022-08-01T15:11:00;1.45;;;1.05;;
13866;SDS011;7003;46.982;15.248;2022-08-01T15:13:30;0.65;;;0.65;;
13866;SDS011;7003;46.982;15.248;2022-08-01T15:15:59;0.90;;;0.90;;
13866;SDS011;7003;46.982;15.248;2022-08-01T15:18:29;1.65;;;1.55;;